Daly City, CA

8:37 PM PDT on March 31, 2015 (GMT -0700)
Half Moon Bay | | Change Station
CLOSE
Current Station
Airport
Location: Half Moon Bay,
Elevation: 66 ft
Nearby Weather Stations

Elev 66 ft 37.51 °N, 122.50 °W | Updated 22 minutes ago

Clear
Clear
54 °F
Feels Like 54 °F
N
28
Wind Variable Wind from NNW
Gusts 36 mph

Today
High -- | Low -- °F
--% Chance of Precip.
Yesterday
High -- | Low -- °F
Precip. -- in
6:56 AM 7:31 PM
Waxing Gibbous, 90% visible
Pressure 30.18 in
Visibility 6.0 miles
Clouds Few 1500 ft
Dew Point 45 °F
Humidity 72%
Rainfall 0.00 in
Snow Depth Not available.
UV 0 out of 12
Pollen 9.00 out of 12
Air Quality Not available.
Flu Activity Not available.
METAR KHAF 010315Z AUTO 33024G31KT 6SM HZ FEW015 12/07 A3018 RMK AO2

More Conditions Fewer Conditions

Pressure 30.18 in
Visibility 6.0 miles
Clouds Few 1500 ft
Dew Point 45 °F
Humidity 72%
Rainfall 0.00 in
Snow Depth Not available.
UV 0 out of 12
Pollen 9.00 out of 12
Air Quality Not available.
Flu Activity Not available.
METAR KHAF 010315Z AUTO 33024G31KT 6SM HZ FEW015 12/07 A3018 RMK AO2

More Conditions Fewer Conditions

10-Day Weather Forecast

Almanac

Astronomy

Mar. 31, 2015 Rise Set
Actual Time
Civil Twilight
Nautical Twilight
Astronomical Twilight
Moon
Length of Visible Light
Length of Day
Tomorrow will be .
, % of the Moon is Illuminated

Today's Extremes

State Highs State Lows

Community

WunderPhotos

Upload Photos

1,809,898 photos uploaded!

WunderBlogs® & News

Nearby

Air Quality

  Air Quality AQ Index Pollutant
Not available.

Snow Depth

Station Depth Elevation

Earthquake Activity

City Distance Mag. Time & Date
Minimum magnitude displayed is 2.5.

Coastal Water Temperatures

Place Temperature

Stations

Nearby Weather Stations

Station Location Temp. Windchill Dew Point Humidity Wind Precip. Elev Updated Type